Latest Coastal Weather Observations for Centre Island

IDD60701

Issued at 7:51 pm CST Friday 26 August 2016 (issued every 10 minutes, with the page automatically refreshed every 10 minutes)

About coastal observations | Map of coastal stations | Coastal observations for NT | Marine services | Other Formats
Station Details ID: 014703 Name: CENTRE ISLAND Lat: -15.74 Lon: 136.82 Height: 12.2 m
Data from the previous 72 hours. | See also: Recent months at Centre Island
Date/Time
CST
Temp
°C
Wind Pressure Rain since
9am
mm
Weather Cloud Vis
km
Sea
Height
m
Swell
Dir  Spd
kts
Gust
kts
hPa Trend Height
m
Period
s
Dir
26/07:30pm 23.1 ENE 10 14 1016.1 - 0.0 - - - - - - -
26/07:00pm 23.3 ENE 13 15 1015.6 - 0.0 - - - - - - -
26/06:30pm 23.6 ENE 12 14 1015.1 - 0.0 - - - - - - -
26/06:00pm 24.1 E 12 15 1014.8 - 0.0 - - - - - - -
26/05:30pm 25.1 E 13 17 1014.6 - 0.0 - - - - - - -
26/05:00pm 26.1 E 13 15 1014.4 - 0.0 - - - - - - -
26/04:30pm 26.7 E 12 15 1014.3 - 0.0 - - - - - - -
26/04:00pm 27.1 E 11 14 1014.2 - 0.0 - - - - - - -
26/03:30pm 27.9 ENE 8 10 1014.3 - 0.0 - - - - - - -
26/03:00pm 27.8 ENE 8 11 1014.5 - 0.0 - - - - - - -
26/02:30pm 27.6 E 7 8 1014.7 - 0.0 - - - - - - -
26/02:00pm 27.7 E 8 10 1015.1 - 0.0 - - - - - - -
26/01:30pm 27.3 E 8 10 1015.6 - 0.0 - - - - - - -
26/01:00pm 27.2 ESE 8 10 1016.1 - 0.0 - - - - - - -
26/12:30pm 27.5 SE 11 13 1016.5 - 0.0 - - - - - - -
26/12:00pm 26.7 SE 13 16 1016.9 - 0.0 - - - - - - -
26/11:30am 26.1 SE 15 19 1017.4 - 0.0 - - - - - - -
26/11:00am 25.5 SSE 17 21 1017.9 - 0.0 - - - - - - -
26/10:30am 24.7 SE 17 22 1018.2 - 0.0 - - - - - - -
26/10:00am 24.0 SE 18 22 1018.4 - 0.0 - - - - - - -
26/09:30am 22.8 SE 20 25 1018.5 - 0.0 - - - - - - -
26/09:00am 21.9 SE 21 25 1018.6 - 0.0 - - - - - - -
26/08:30am 21.2 SE 21 25 1018.5 - 0.0 - - - - - - -
26/08:00am 20.8 SE 21 25 1018.3 - 0.0 - - - - - - -
26/07:30am 20.6 SE 23 27 1017.7 - 0.0 - - - - - - -
26/07:00am 20.4 SE 22 26 1017.4 - 0.0 - - - - - - -
26/06:30am 20.4 SE 23 26 1017.2 - 0.0 - - - - - - -
26/06:00am 20.5 SE 21 24 1016.7 - 0.0 - - - - - - -
26/05:30am 20.7 SE 20 23 1016.5 - 0.0 - - - - - - -
26/05:00am 20.9 SE 20 24 1016.1 - 0.0 - - - - - - -
26/04:30am 21.3 SE 21 28 1015.8 - 0.0 - - - - - - -
26/04:00am 21.6 SE 21 26 1015.6 - 0.0 - - - - - - -
26/03:30am 21.8 SSE 21 24 1015.4 - 0.0 - - - - - - -
26/03:00am 22.3 SSE 24 29 1015.3 - 0.0 - - - - - - -
26/02:30am 22.4 SSE 21 26 1015.2 - 0.0 - - - - - - -
26/02:00am 23.1 SSE 21 27 1015.1 - 0.0 - - - - - - -
26/01:30am 23.1 SE 20 23 1015.0 - 0.0 - - - - - - -
26/01:00am 22.8 SE 17 20 1014.9 - 0.0 - - - - - - -
26/12:30am 22.9 SE 17 19 1015.0 - 0.0 - - - - - - -
26/12:00am 23.0 SE 16 18 1014.9 - 0.0 - - - - - - -
 
Date/Time
CST
Temp
°C
Wind Pressure Rain since
9am
mm
Weather Cloud Vis
km
Sea
Height
m
Swell
Dir  Spd
kts
Gust
kts
hPa Trend Height
m
Period
s
Dir
25/11:30pm 23.0 SE 15 17 1015.0 - 0.0 - - - - - - -
25/11:00pm 23.9 ESE 16 18 1014.7 - 0.0 - - - - - - -
25/10:30pm 23.9 ESE 16 18 1014.4 - 0.0 - - - - - - -
25/10:00pm 23.8 ESE 15 18 1014.3 - 0.0 - - - - - - -
25/09:30pm 23.9 ESE 14 16 1013.9 - 0.0 - - - - - - -
25/09:00pm 23.9 ESE 13 15 1013.7 - 0.0 - - - - - - -
25/08:30pm 23.8 ESE 12 14 1013.3 - 0.0 - - - - - - -
25/08:00pm 23.9 E 12 14 1013.2 - 0.0 - - - - - - -
25/07:30pm 23.8 E 12 14 1012.9 - 0.0 - - - - - - -
25/07:00pm 23.8 E 11 13 1012.7 - 0.0 - - - - - - -
25/06:30pm 23.7 E 11 13 1012.4 - 0.0 - - - - - - -
25/06:00pm 24.0 E 11 13 1012.2 - 0.0 - - - - - - -
25/05:30pm 24.4 ENE 11 13 1011.9 - 0.0 - - - - - - -
25/05:00pm 25.1 ENE 10 13 1011.7 - 0.0 - - - - - - -
25/04:30pm 25.2 E 11 14 1011.5 - 0.0 - - - - - - -
25/04:00pm 25.1 ENE 11 14 1011.3 - 0.0 - - - - - - -
25/03:30pm 24.9 ENE 13 16 1011.4 - 0.0 - - - - - - -
25/03:00pm 25.2 E 13 16 1011.5 - 0.0 - - - - - - -
25/02:30pm 26.1 E 13 15 1011.6 - 0.0 - - - - - - -
25/02:00pm 26.3 ENE 11 14 1012.0 - 0.0 - - - - - - -
25/01:30pm 26.6 ENE 10 13 1012.5 - 0.0 - - - - - - -
25/01:00pm 27.5 E 13 16 1012.7 - 0.0 - - - - - - -
25/12:30pm 27.0 E 13 16 1013.1 - 0.0 - - - - - - -
25/12:00pm 27.1 ESE 15 18 1013.5 - 0.0 - - - - - - -
25/11:30am 26.3 ESE 15 19 1013.9 - 0.0 - - - - - - -
25/11:00am 25.7 ESE 17 19 1014.3 - 0.0 - - - - - - -
25/10:30am 25.4 ESE 17 21 1014.7 - 0.0 - - - - - - -
25/10:00am 24.8 ESE 19 23 1014.5 - 0.0 - - - - - - -
25/09:30am 24.2 ESE 21 25 1014.3 - 0.0 - - - - - - -
25/09:00am 23.6 SE 20 24 1014.3 - 0.0 - - - - - - -
25/08:30am 23.2 SE 20 25 1014.1 - 0.0 - - - - - - -
25/08:00am 22.5 SE 19 22 1013.9 - 0.0 - - - - - - -
25/07:30am 22.2 SE 19 23 1013.5 - 0.0 - - - - - - -
25/07:00am 21.9 SE 18 22 1013.4 - 0.0 - - - - - - -
25/06:30am 22.1 SSE 19 25 1013.1 - 0.0 - - - - - - -
25/06:00am 22.2 SSE 19 22 1012.6 - 0.0 - - - - - - -
25/05:30am 22.5 SSE 19 22 1012.2 - 0.0 - - - - - - -
25/05:00am 22.7 SSE 18 23 1011.8 - 0.0 - - - - - - -
25/04:30am 23.0 SSE 16 19 1011.7 - 0.0 - - - - - - -
25/04:00am 23.5 SSE 18 21 1011.7 - 0.0 - - - - - - -
25/03:30am 23.8 SSE 17 19 1011.5 - 0.0 - - - - - - -
25/03:00am 24.0 SSE 13 16 1011.7 - 0.0 - - - - - - -
25/02:30am 23.9 SE 13 14 1011.5 - 0.0 - - - - - - -
25/02:00am 24.2 SE 14 17 1011.8 - 0.0 - - - - - - -
25/01:30am 24.4 SE 16 18 1011.8 - 0.0 - - - - - - -
25/01:00am 24.7 SE 14 16 1011.9 - 0.0 - - - - - - -
25/12:30am 24.7 SE 15 17 1012.0 - 0.0 - - - - - - -
25/12:00am 25.0 SE 14 17 1011.9 - 0.0 - - - - - - -
 
Date/Time
CST
Temp
°C
Wind Pressure Rain since
9am
mm
Weather Cloud Vis
km
Sea
Height
m
Swell
Dir  Spd
kts
Gust
kts
hPa Trend Height
m
Period
s
Dir
24/11:30pm 25.2 SE 16 18 1011.7 - 0.0 - - - - - - -
24/11:00pm 25.2 ESE 12 14 1011.6 - 0.0 - - - - - - -
24/10:30pm 25.1 SE 10 11 1011.4 - 0.0 - - - - - - -
24/10:00pm 25.4 SE 6 8 1010.8 - 0.0 - - - - - - -
24/09:30pm 25.4 ESE 8 9 1010.5 - 0.0 - - - - - - -
24/09:00pm 24.8 ENE 5 6 1010.3 - 0.0 - - - - - - -
24/08:30pm 25.3 E 7 11 1010.2 - 0.0 - - - - - - -
24/08:09pm 25.4 SSW 10 17 1009.6 - 0.0 - - - - - - -
24/08:00pm 24.9 N 5 7 1009.0 - 0.0 - - - - - - -
24/07:30pm 25.2 NNE 9 11 1008.4 - 0.0 - - - - - - -
24/07:00pm 25.2 NNE 11 13 1008.0 - 0.0 - - - - - - -
24/06:30pm 25.5 NNE 11 13 1007.8 - 0.0 - - - - - - -
24/06:00pm 26.0 NNE 11 14 1007.4 - 0.0 - - - - - - -
24/05:30pm 28.0 N 9 12 1007.1 - 0.0 - - - - - - -
24/05:00pm 28.3 N 9 12 1007.1 - 0.0 - - - - - - -
24/04:30pm 30.0 N 10 14 1007.0 - 0.0 - - - - - - -
24/04:00pm 30.1 NNE 10 13 1006.9 - 0.0 - - - - - - -
24/03:30pm 30.3 NNE 10 14 1006.7 - 0.0 - - - - - - -
24/03:00pm 30.8 NE 9 11 1006.6 - 0.0 - - - - - - -
24/02:30pm 32.1 NNE 8 11 1006.8 - 0.0 - - - - - - -
24/02:00pm 32.4 N 8 12 1007.3 - 0.0 - - - - - - -
24/01:30pm 31.8 N 9 14 1007.6 - 0.0 - - - - - - -
24/01:00pm 33.0 N 9 13 1008.1 - 0.0 - - - - - - -
24/12:30pm 30.7 NNE 10 14 1008.5 - 0.0 - - - - - - -
24/12:00pm 32.2 N 8 11 1009.2 - 0.0 - - - - - - -
24/11:30am 30.8 W 5 6 1009.8 - 0.0 - - - - - - -
24/11:00am 30.3 W 7 11 1010.2 - 0.0 - - - - - - -
24/10:30am 29.2 WNW 9 14 1010.5 - 0.0 - - - - - - -
24/10:00am 28.4 WNW 11 16 1010.8 - 0.0 - - - - - - -
24/09:30am 27.8 WNW 12 17 1011.1 - 0.0 - - - - - - -
24/09:00am 27.1 WNW 9 12 1011.1 - 0.0 - - - - - - -
24/08:30am 26.1 WNW 10 15 1010.9 - 0.0 - - - - - - -
24/08:00am 25.6 WNW 10 16 1010.6 - 0.0 - - - - - - -
24/07:30am 24.5 NW 11 16 1010.3 - 0.0 - - - - - - -
24/07:00am 24.5 NW 12 18 1009.6 - 0.0 - - - - - - -
24/06:30am 24.3 NNW 12 18 1009.2 - 0.0 - - - - - - -
24/06:00am 24.3 NNW 13 19 1008.7 - 0.0 - - - - - - -
24/05:30am 24.5 NNW 14 23 1008.4 - 0.0 - - - - - - -
24/05:00am 24.5 NNW 14 22 1008.2 - 0.0 - - - - - - -
24/04:30am 24.6 NNW 13 19 1007.7 - 0.0 - - - - - - -
24/04:00am 24.6 NNW 13 19 1007.7 - 0.0 - - - - - - -
24/03:30am 24.7 NNW 12 17 1007.7 - 0.0 - - - - - - -
24/03:00am 24.8 NNW 13 19 1007.7 - 0.0 - - - - - - -
24/02:30am 24.9 N 13 18 1007.8 - 0.0 - - - - - - -
24/02:00am 24.8 N 12 16 1008.0 - 0.0 - - - - - - -
24/01:30am 24.8 N 12 15 1008.0 - 0.0 - - - - - - -
24/01:00am 25.0 N 11 16 1008.2 - 0.0 - - - - - - -
24/12:30am 25.1 N 12 17 1008.5 - 0.0 - - - - - - -
24/12:00am 25.3 N 13 19 1008.3 - 0.0 - - - - - - -
 
Date/Time
CST
Temp
°C
Wind Pressure Rain since
9am
mm
Weather Cloud Vis
km
Sea
Height
m
Swell
Dir  Spd
kts
Gust
kts
hPa Trend Height
m
Period
s
Dir
23/11:30pm 25.4 N 15 20 1008.2 - 0.0 - - - - - - -
23/11:00pm 25.3 N 13 18 1008.5 - 0.0 - - - - - - -
23/10:30pm 25.2 N 10 14 1008.6 - 0.0 - - - - - - -
23/10:00pm 25.1 N 11 16 1008.6 - 0.0 - - - - - - -
23/09:30pm 25.0 N 12 16 1008.4 - 0.0 - - - - - - -
23/09:00pm 24.9 NNE 12 17 1008.2 - 0.0 - - - - - - -
23/08:30pm 24.9 NNE 13 18 1008.0 - 0.0 - - - - - - -
23/08:00pm 24.8 NNE 12 15 1007.7 - 0.0 - - - - - - -

Other Formats:

Comma delimited format used in spreadsheet applications
http://www.bom.gov.au/fwo/IDD60701/IDD60701.94248.axf

JavaScript Object Notation format (JSON) in row-major order
http://www.bom.gov.au/fwo/IDD60701/IDD60701.94248.json